Time;durP1;ratioP1;P1;durP2;ratioP2;P2;SDS_P1;SDS_P2;PMS_P1;PMS_P2;Temp;Humidity;BMP_temperature;BMP_pressure;BME280_temperature;BME280_humidity;BME280_pressure;Samples;Min_cycle;Max_cycle;Signal;HPM_P1;HPM_P2
2022/04/06 00:00:11;;;;;;;10.25;7.68;;;11.50;99.90;;;;;;5012468;28;20121;-69
2022/04/06 00:02:39;;;;;;;11.10;7.43;;;11.50;99.90;;;;;;5004087;28;20548;-68
2022/04/06 00:05:06;;;;;;;11.55;8.20;;;11.50;99.90;;;;;;5005375;28;20029;-69
2022/04/06 00:07:31;;;;;;;10.52;7.07;;;11.50;99.90;;;;;;5005873;28;20050;-70
2022/04/06 00:09:57;;;;;;;11.15;7.15;;;11.50;99.90;;;;;;5002941;28;20037;-68
2022/04/06 00:12:22;;;;;;;11.00;7.70;;;11.60;99.90;;;;;;4994929;28;20398;-69
2022/04/06 00:14:48;;;;;;;9.27;6.95;;;11.60;99.90;;;;;;5002524;28;20024;-69
2022/04/06 00:17:14;;;;;;;10.88;7.78;;;11.60;99.90;;;;;;5000731;28;20097;-68
2022/04/06 00:19:39;;;;;;;8.30;6.38;;;11.60;99.90;;;;;;5010092;28;20052;-70
2022/04/06 00:22:05;;;;;;;9.18;7.10;;;11.60;99.90;;;;;;4994841;28;20030;-68
2022/04/06 00:24:31;;;;;;;10.38;6.88;;;11.50;99.90;;;;;;4995164;28;20497;-69
2022/04/06 00:26:56;;;;;;;8.32;5.88;;;11.60;99.90;;;;;;4995156;28;20023;-69
2022/04/06 00:29:22;;;;;;;8.60;6.63;;;11.60;99.90;;;;;;4996018;28;20038;-69
2022/04/06 00:31:47;;;;;;;8.70;6.15;;;11.60;99.90;;;;;;4998628;28;20022;-69
2022/04/06 00:34:13;;;;;;;8.52;6.00;;;11.60;99.90;;;;;;5000030;28;20026;-68
2022/04/06 00:36:39;;;;;;;8.90;6.60;;;11.60;99.90;;;;;;5014110;28;20572;-68
2022/04/06 00:39:04;;;;;;;8.57;6.05;;;11.50;99.90;;;;;;5009391;28;20069;-68
2022/04/06 00:41:30;;;;;;;7.28;5.78;;;11.60;99.90;;;;;;4994623;28;20030;-68
2022/04/06 00:44:15;;;;;;;8.40;5.75;;;11.60;99.90;;;;;;4994998;28;20058;-68
2022/04/06 00:46:42;;;;;;;9.25;6.60;;;11.50;99.90;;;;;;5012896;28;20545;-69
2022/04/06 00:49:13;;;;;;;9.38;7.13;;;11.60;99.90;;;;;;5011631;28;20417;-68
2022/04/06 00:51:41;;;;;;;8.52;6.35;;;11.60;99.90;;;;;;5011204;28;20482;-69
2022/04/06 00:54:07;;;;;;;10.10;6.65;;;11.60;99.90;;;;;;4994741;28;20042;-69
2022/04/06 00:56:33;;;;;;;11.13;8.15;;;11.60;99.90;;;;;;4994553;28;20379;-69
2022/04/06 00:59:00;;;;;;;9.40;7.18;;;11.60;99.90;;;;;;4993838;28;20057;-69
2022/04/06 01:01:26;;;;;;;11.10;8.10;;;11.60;99.90;;;;;;4994436;28;20109;-69
2022/04/06 01:03:52;;;;;;;10.63;7.97;;;11.60;99.90;;;;;;5008477;28;20118;-69
2022/04/06 01:06:19;;;;;;;10.30;7.82;;;11.60;99.90;;;;;;5013874;28;20473;-69
2022/04/06 01:08:45;;;;;;;10.45;7.65;;;11.60;99.90;;;;;;4997968;28;20041;-69
2022/04/06 01:11:18;;;;;;;10.55;7.88;;;11.60;99.90;;;;;;5013617;28;20473;-69
2022/04/06 01:13:45;;;;;;;10.55;8.07;;;11.60;99.90;;;;;;5011714;28;20030;-69
2022/04/06 01:16:11;;;;;;;10.70;8.30;;;11.50;99.90;;;;;;5011766;28;20026;-69
2022/04/06 01:18:36;;;;;;;11.52;8.48;;;11.60;99.90;;;;;;5011848;28;20075;-69
2022/04/06 01:21:04;;;;;;;10.88;7.65;;;11.60;99.90;;;;;;5011638;28;20393;-69
2022/04/06 01:23:30;;;;;;;12.35;9.23;;;11.60;99.90;;;;;;5010753;28;20113;-69
2022/04/06 01:25:56;;;;;;;11.20;8.45;;;11.60;99.90;;;;;;4996691;28;20034;-69
2022/04/06 01:28:21;;;;;;;12.38;8.48;;;11.60;99.90;;;;;;4993680;28;20034;-69
2022/04/06 01:30:46;;;;;;;11.07;7.97;;;11.50;99.90;;;;;;5001679;28;20125;-69
2022/04/06 01:33:12;;;;;;;12.43;8.85;;;11.60;99.90;;;;;;4993134;28;20023;-69
2022/04/06 01:35:38;;;;;;;11.88;8.43;;;11.60;99.90;;;;;;4999324;28;20036;-70
2022/04/06 01:38:05;;;;;;;11.18;7.78;;;11.50;99.90;;;;;;5011496;28;20381;-70
2022/04/06 01:40:30;;;;;;;11.27;8.20;;;11.60;99.90;;;;;;4993430;28;20536;-70
2022/04/06 01:42:56;;;;;;;11.65;7.95;;;11.60;99.90;;;;;;5006142;28;20031;-70
2022/04/06 01:45:22;;;;;;;11.15;8.35;;;11.60;99.90;;;;;;5010542;28;20033;-70
2022/04/06 01:47:47;;;;;;;12.25;8.82;;;11.60;99.90;;;;;;5012396;28;20324;-70
2022/04/06 01:52:57;;;;;;;13.18;9.07;;;11.60;99.90;;;;;;4993622;28;20042;-69
2022/04/06 01:55:22;;;;;;;11.82;9.10;;;11.60;99.90;;;;;;5009583;28;20025;-70
2022/04/06 01:57:48;;;;;;;13.90;9.57;;;11.60;99.90;;;;;;5012263;28;20033;-70
2022/04/06 02:00:16;;;;;;;11.45;8.85;;;11.60;99.90;;;;;;5000812;28;20022;-70
2022/04/06 02:02:46;;;;;;;11.80;9.20;;;11.70;99.90;;;;;;4992241;28;20034;-69
2022/04/06 02:05:13;;;;;;;12.23;7.90;;;11.70;99.90;;;;;;4993227;28;20026;-69
2022/04/06 02:07:39;;;;;;;13.82;8.73;;;11.70;99.90;;;;;;5011604;28;20054;-69
2022/04/06 02:10:04;;;;;;;12.82;8.77;;;11.70;99.90;;;;;;5026999;28;20511;-67
2022/04/06 02:12:32;;;;;;;11.40;8.70;;;11.70;99.90;;;;;;5010156;28;20030;-69
2022/04/06 02:14:58;;;;;;;13.80;9.20;;;11.70;99.90;;;;;;5000610;28;20037;-69
2022/04/06 02:17:29;;;;;;;12.98;8.95;;;11.70;99.90;;;;;;4994333;28;20050;-69
2022/04/06 02:19:56;;;;;;;12.23;8.75;;;11.70;99.90;;;;;;4992151;28;20054;-69
2022/04/06 02:22:22;;;;;;;12.00;9.40;;;11.70;99.90;;;;;;5008905;28;20045;-69
2022/04/06 02:24:47;;;;;;;11.38;8.60;;;11.70;99.90;;;;;;5001578;28;20030;-69
2022/04/06 02:27:13;;;;;;;11.43;8.88;;;11.70;99.90;;;;;;5007635;28;20437;-69
2022/04/06 02:29:40;;;;;;;11.73;8.88;;;11.70;99.90;;;;;;5004349;28;20118;-69
2022/04/06 02:32:06;;;;;;;12.13;8.68;;;11.70;99.90;;;;;;5006410;28;20037;-69
2022/04/06 02:34:32;;;;;;;13.35;9.68;;;11.70;99.90;;;;;;4998894;28;20120;-69
2022/04/06 02:36:58;;;;;;;11.73;9.00;;;11.70;99.90;;;;;;4996611;28;20106;-68
2022/04/06 02:39:23;;;;;;;12.82;9.02;;;11.70;99.90;;;;;;4992152;28;20077;-69
2022/04/06 02:41:49;;;;;;;12.82;8.68;;;11.70;99.90;;;;;;4999968;28;20433;-69
2022/04/06 02:44:15;;;;;;;11.80;8.77;;;11.70;99.90;;;;;;4992450;28;20033;-68
2022/04/06 02:46:41;;;;;;;12.23;9.55;;;11.70;99.90;;;;;;5002681;28;20026;-69
2022/04/06 02:49:06;;;;;;;14.82;9.40;;;11.70;99.90;;;;;;5011794;28;20469;-69
2022/04/06 02:51:32;;;;;;;11.38;8.32;;;11.70;99.90;;;;;;5002109;28;20121;-70
2022/04/06 02:53:57;;;;;;;11.55;8.65;;;11.70;99.90;;;;;;5011490;28;20022;-69
2022/04/06 02:56:23;;;;;;;12.63;8.75;;;11.60;99.90;;;;;;5007425;28;20052;-70
2022/04/06 02:58:48;;;;;;;12.10;9.68;;;11.60;99.90;;;;;;4992129;28;20030;-68
2022/04/06 03:01:14;;;;;;;11.63;9.07;;;11.70;99.90;;;;;;4999334;28;20088;-69
2022/04/06 03:03:39;;;;;;;12.45;8.90;;;11.60;99.90;;;;;;5011498;28;20533;-69
2022/04/06 03:06:07;;;;;;;12.48;8.90;;;11.60;99.90;;;;;;5010653;28;20021;-69
2022/04/06 03:08:33;;;;;;;13.90;8.80;;;11.60;99.90;;;;;;5009438;28;20053;-69
2022/04/06 03:10:59;;;;;;;10.73;8.75;;;11.60;99.90;;;;;;5010125;28;20030;-69
2022/04/06 03:13:24;;;;;;;12.80;9.00;;;11.60;99.90;;;;;;5011684;28;20022;-69
2022/04/06 03:15:50;;;;;;;11.85;8.43;;;11.60;99.90;;;;;;5005349;28;20030;-69
2022/04/06 03:18:16;;;;;;;14.02;9.55;;;11.60;99.90;;;;;;4992086;28;20394;-69
2022/04/06 03:20:41;;;;;;;11.15;8.43;;;11.60;99.90;;;;;;5003337;28;20499;-69
2022/04/06 03:23:07;;;;;;;10.30;8.18;;;11.60;99.90;;;;;;4996104;28;20121;-69
2022/04/06 03:25:32;;;;;;;12.35;8.40;;;11.50;99.90;;;;;;4997565;28;20034;-69
2022/04/06 03:27:58;;;;;;;14.10;7.82;;;11.50;99.90;;;;;;5027230;28;20030;-69
2022/04/06 03:30:23;;;;;;;13.85;7.93;;;11.50;99.90;;;;;;5031904;28;20061;-69
2022/04/06 03:32:49;;;;;;;10.30;7.90;;;11.50;99.90;;;;;;4998629;28;20026;-68
2022/04/06 03:35:14;;;;;;;13.98;8.15;;;11.50;99.90;;;;;;4995369;28;20038;-68
2022/04/06 03:37:40;;;;;;;10.82;7.85;;;11.50;99.90;;;;;;5014703;28;20033;-69
2022/04/06 03:40:06;;;;;;;11.05;7.53;;;11.50;99.90;;;;;;5015100;28;20573;-68
2022/04/06 03:42:33;;;;;;;9.52;7.32;;;11.50;99.90;;;;;;5013715;28;20114;-68
2022/04/06 03:44:59;;;;;;;9.88;7.22;;;11.50;99.90;;;;;;5014172;28;20573;-68
2022/04/06 03:47:33;;;;;;;10.57;7.32;;;11.60;99.90;;;;;;5007480;28;20034;-68
2022/04/06 03:49:59;;;;;;;14.45;7.80;;;11.60;99.90;;;;;;5011834;28;20057;-68
2022/04/06 03:52:25;;;;;;;10.70;6.95;;;11.60;99.90;;;;;;5012335;28;20033;-68
2022/04/06 03:54:51;;;;;;;13.30;7.55;;;11.60;99.90;;;;;;5013922;28;20034;-68
2022/04/06 03:57:17;;;;;;;9.55;6.95;;;11.60;99.90;;;;;;4998018;28;20023;-68
2022/04/06 03:59:43;;;;;;;12.18;7.75;;;11.60;99.90;;;;;;5004609;28;20113;-68
2022/04/06 04:02:08;;;;;;;11.32;7.75;;;11.50;99.90;;;;;;5007792;28;20108;-69
2022/04/06 04:04:33;;;;;;;13.02;7.80;;;11.60;99.90;;;;;;5014557;28;20030;-69
2022/04/06 04:06:59;;;;;;;9.52;7.00;;;11.50;99.90;;;;;;5009399;28;20030;-69
2022/04/06 04:09:25;;;;;;;14.32;7.72;;;11.50;99.90;;;;;;5014790;28;20489;-69
2022/04/06 04:11:51;;;;;;;11.73;7.50;;;11.50;99.90;;;;;;5012142;28;20030;-69
2022/04/06 04:14:16;;;;;;;10.90;7.38;;;11.50;99.90;;;;;;5014487;28;20382;-68
2022/04/06 04:16:41;;;;;;;9.98;6.78;;;11.50;99.90;;;;;;5011711;28;20025;-68
2022/04/06 04:19:07;;;;;;;11.27;7.22;;;11.50;99.90;;;;;;5014723;28;20032;-68
2022/04/06 04:21:32;;;;;;;10.23;7.32;;;11.50;99.90;;;;;;5010482;28;20478;-66
2022/04/06 04:24:04;;;;;;;10.70;6.95;;;11.50;99.90;;;;;;4996133;28;20034;-68
2022/04/06 04:26:30;;;;;;;12.52;7.15;;;11.50;99.90;;;;;;5004422;28;20118;-67
2022/04/06 04:28:56;;;;;;;9.18;6.47;;;11.50;99.90;;;;;;5001280;28;20120;-70
2022/04/06 04:31:22;;;;;;;10.00;6.88;;;11.50;99.90;;;;;;4997178;28;20035;-70
2022/04/06 04:33:48;;;;;;;10.40;7.15;;;11.60;99.90;;;;;;4998609;28;20026;-70
2022/04/06 04:36:14;;;;;;;11.80;7.32;;;11.50;99.90;;;;;;5003844;28;20470;-70
2022/04/06 04:38:39;;;;;;;9.85;7.00;;;11.40;99.90;;;;;;5014306;28;20037;-70
2022/04/06 04:41:08;;;;;;;12.13;8.40;;;11.50;99.90;;;;;;5013165;28;20100;-70
2022/04/06 04:43:35;;;;;;;14.38;8.43;;;11.40;99.90;;;;;;5014028;28;20470;-70
2022/04/06 04:46:00;;;;;;;12.85;7.60;;;11.40;99.90;;;;;;4999123;28;20023;-70
2022/04/06 04:48:26;;;;;;;12.68;7.80;;;11.40;99.90;;;;;;5000876;28;20033;-71
2022/04/06 04:50:51;;;;;;;10.82;7.43;;;11.40;99.90;;;;;;5000926;28;20037;-71
2022/04/06 04:53:17;;;;;;;11.55;8.05;;;11.40;99.90;;;;;;5009350;28;20033;-70
2022/04/06 04:55:42;;;;;;;11.40;8.05;;;11.40;99.90;;;;;;5005514;28;20022;-71
2022/04/06 04:58:08;;;;;;;13.25;7.72;;;11.40;99.90;;;;;;5011957;28;20037;-70
2022/04/06 05:00:33;;;;;;;13.50;7.75;;;11.40;99.90;;;;;;5010169;28;20509;-71
2022/04/06 05:02:59;;;;;;;12.20;8.63;;;11.50;99.90;;;;;;4997212;28;20038;-71
2022/04/06 05:05:24;;;;;;;13.38;8.50;;;11.50;99.90;;;;;;5011572;28;20109;-67
2022/04/06 05:07:50;;;;;;;13.07;8.27;;;11.50;99.90;;;;;;5003224;28;20491;-69
2022/04/06 05:10:16;;;;;;;13.90;8.68;;;11.50;99.90;;;;;;4994035;28;20406;-68
2022/04/06 05:12:42;;;;;;;12.73;8.70;;;11.50;99.90;;;;;;5000386;28;20556;-67
2022/04/06 05:15:08;;;;;;;16.55;8.73;;;11.50;99.90;;;;;;5012197;28;20034;-69
2022/04/06 05:17:34;;;;;;;11.77;7.60;;;11.50;99.90;;;;;;5000096;28;20037;-67
2022/04/06 05:19:59;;;;;;;13.82;8.23;;;11.50;99.90;;;;;;4992090;28;20390;-69
2022/04/06 05:22:25;;;;;;;15.30;8.57;;;11.50;99.90;;;;;;4994391;28;20027;-67
2022/04/06 05:24:51;;;;;;;15.85;8.70;;;11.50;99.90;;;;;;5010391;28;20037;-67
2022/04/06 05:27:16;;;;;;;13.57;8.52;;;11.60;99.90;;;;;;4995771;28;20023;-67
2022/04/06 05:29:42;;;;;;;12.98;8.90;;;11.60;99.90;;;;;;5007486;28;20489;-69
2022/04/06 05:32:08;;;;;;;11.52;8.48;;;11.60;99.90;;;;;;5000286;28;20506;-68
2022/04/06 05:34:35;;;;;;;15.32;8.13;;;11.50;99.90;;;;;;4998793;28;20030;-68
2022/04/06 05:37:01;;;;;;;14.35;8.43;;;11.60;99.90;;;;;;5000076;28;20029;-68
2022/04/06 05:39:27;;;;;;;11.73;7.88;;;11.60;99.90;;;;;;4998917;28;20441;-68
2022/04/06 05:41:52;;;;;;;11.90;8.07;;;11.60;99.90;;;;;;5003883;28;20032;-68
2022/04/06 05:44:18;;;;;;;13.93;7.72;;;11.60;99.90;;;;;;4999457;28;20101;-68
2022/04/06 05:46:43;;;;;;;12.27;7.60;;;11.60;99.90;;;;;;4998426;28;20903;-67
2022/04/06 05:49:09;;;;;;;15.05;8.70;;;11.70;99.90;;;;;;5008644;28;20038;-68
2022/04/06 05:51:35;;;;;;;10.85;7.43;;;11.80;99.90;;;;;;5010645;28;20386;-67
2022/04/06 05:54:02;;;;;;;16.27;8.27;;;11.80;99.90;;;;;;5007583;28;20033;-67
2022/04/06 05:56:28;;;;;;;11.13;7.88;;;11.80;99.90;;;;;;5008403;28;20022;-68
2022/04/06 05:58:53;;;;;;;13.50;7.90;;;11.90;99.90;;;;;;5010016;28;20030;-68
2022/04/06 06:01:19;;;;;;;13.52;8.50;;;11.90;99.90;;;;;;5007373;28;20060;-68
2022/04/06 06:03:44;;;;;;;14.70;8.48;;;11.90;99.80;;;;;;5003500;28;20061;-68
2022/04/06 06:06:10;;;;;;;11.73;8.43;;;12.00;99.80;;;;;;4997249;28;20117;-68
2022/04/06 06:08:35;;;;;;;11.38;7.90;;;12.00;99.80;;;;;;5006329;28;20415;-68
2022/04/06 06:11:01;;;;;;;12.88;8.10;;;12.00;99.70;;;;;;4993697;28;20030;-68
2022/04/06 06:13:27;;;;;;;11.77;8.18;;;12.00;99.70;;;;;;5005876;28;20022;-68
2022/04/06 06:15:52;;;;;;;13.55;8.57;;;12.00;99.70;;;;;;5008487;28;20022;-67
2022/04/06 06:18:18;;;;;;;14.63;8.88;;;12.10;99.70;;;;;;5009095;28;20447;-67
2022/04/06 06:20:43;;;;;;;15.15;8.27;;;12.00;99.70;;;;;;5010728;28;20065;-68
2022/04/06 06:23:09;;;;;;;16.02;8.90;;;12.00;99.60;;;;;;5009568;28;20401;-67
2022/04/06 06:25:35;;;;;;;13.02;8.63;;;12.10;99.60;;;;;;5004966;28;20398;-68
2022/04/06 06:28:00;;;;;;;14.13;9.10;;;12.10;99.60;;;;;;5010769;28;20460;-67
2022/04/06 06:30:27;;;;;;;17.27;10.15;;;12.10;99.80;;;;;;5002227;28;20554;-67
2022/04/06 06:32:53;;;;;;;18.27;10.95;;;12.10;99.70;;;;;;5009982;28;20036;-67
2022/04/06 06:35:20;;;;;;;17.52;9.77;;;12.10;99.80;;;;;;4992104;28;20034;-68
2022/04/06 06:37:50;;;;;;;19.50;10.93;;;12.10;99.80;;;;;;5018106;28;20029;-67
2022/04/06 06:40:17;;;;;;;18.67;10.70;;;12.10;99.90;;;;;;5009497;28;20073;-67
2022/04/06 06:42:43;;;;;;;17.45;9.82;;;12.10;99.90;;;;;;4991685;28;20485;-68
2022/04/06 06:45:09;;;;;;;16.42;9.93;;;12.30;99.90;;;;;;5007463;28;20124;-68
2022/04/06 06:47:35;;;;;;;16.02;9.75;;;12.30;99.90;;;;;;4996964;28;20132;-68
2022/04/06 06:50:00;;;;;;;17.17;11.15;;;12.40;99.90;;;;;;5000655;28;20107;-67
2022/04/06 06:52:26;;;;;;;18.85;11.63;;;12.40;99.90;;;;;;5010738;28;20033;-69
2022/04/06 06:54:51;;;;;;;16.77;11.35;;;12.50;99.90;;;;;;5009992;28;20029;-68
2022/04/06 06:57:17;;;;;;;17.05;10.93;;;12.50;99.80;;;;;;5010395;28;20080;-68
2022/04/06 06:59:42;;;;;;;17.60;11.20;;;12.60;99.70;;;;;;5008548;28;20465;-68
2022/04/06 07:02:09;;;;;;;22.67;11.90;;;12.70;99.60;;;;;;5009115;28;20536;-69
2022/04/06 07:04:35;;;;;;;19.45;11.57;;;12.70;99.50;;;;;;5011662;28;20033;-68
2022/04/06 07:07:01;;;;;;;15.85;11.27;;;12.70;99.30;;;;;;5008271;28;20537;-68
2022/04/06 07:09:26;;;;;;;16.33;11.95;;;12.80;99.20;;;;;;5001144;28;20125;-68
2022/04/06 07:11:52;;;;;;;22.58;12.07;;;12.80;99.10;;;;;;5001681;28;20026;-68
2022/04/06 07:14:18;;;;;;;17.90;11.90;;;12.80;99.00;;;;;;5011295;28;20042;-68
2022/04/06 07:16:44;;;;;;;20.35;12.57;;;12.80;99.00;;;;;;5009933;28;20026;-69
2022/04/06 07:19:09;;;;;;;20.35;12.65;;;12.90;99.00;;;;;;5007929;28;20390;-68
2022/04/06 07:21:35;;;;;;;18.10;11.80;;;13.00;98.90;;;;;;5009524;28;20060;-68
2022/04/06 07:24:03;;;;;;;19.80;11.73;;;13.00;98.80;;;;;;5010079;28;20030;-69
2022/04/06 07:26:29;;;;;;;22.63;12.63;;;13.10;98.70;;;;;;5004399;28;20034;-68
2022/04/06 07:28:54;;;;;;;19.60;11.80;;;13.00;98.50;;;;;;4993836;28;20478;-68
2022/04/06 07:31:20;;;;;;;19.15;11.38;;;13.10;98.50;;;;;;5011042;28;20077;-69
2022/04/06 07:33:45;;;;;;;16.73;11.10;;;13.10;98.40;;;;;;5009704;28;20425;-68
2022/04/06 07:36:11;;;;;;;20.40;12.20;;;13.20;98.40;;;;;;5010020;28;20037;-68
2022/04/06 07:38:36;;;;;;;20.45;11.52;;;13.20;98.30;;;;;;5010132;28;20030;-69
2022/04/06 07:41:02;;;;;;;15.93;10.98;;;13.20;98.20;;;;;;5009898;28;20034;-69
2022/04/06 07:43:27;;;;;;;16.85;10.73;;;13.30;98.10;;;;;;5004026;28;20478;-69
2022/04/06 07:45:53;;;;;;;19.65;10.93;;;13.40;98.00;;;;;;4997823;28;20030;-69
2022/04/06 07:48:19;;;;;;;17.80;10.63;;;13.40;97.80;;;;;;5015831;28;20022;-69
2022/04/06 07:50:44;;;;;;;16.65;10.00;;;13.40;97.70;;;;;;5019229;28;20034;-69
2022/04/06 07:53:11;;;;;;;14.82;9.73;;;13.50;97.60;;;;;;5008361;28;20069;-69
2022/04/06 07:55:37;;;;;;;16.23;9.75;;;13.60;97.40;;;;;;5010675;28;20116;-68
2022/04/06 07:58:02;;;;;;;15.60;8.88;;;13.70;97.30;;;;;;5009771;28;20109;-69
2022/04/06 08:00:33;;;;;;;16.52;9.93;;;13.80;97.10;;;;;;5003907;28;20037;-69
2022/04/06 08:02:59;;;;;;;15.05;9.57;;;13.90;96.90;;;;;;4994640;28;20125;-68
2022/04/06 08:05:25;;;;;;;14.00;9.10;;;14.00;96.70;;;;;;5007382;28;20033;-69
2022/04/06 08:07:53;;;;;;;11.63;7.70;;;14.00;96.50;;;;;;5008986;28;20050;-69
2022/04/06 08:10:19;;;;;;;13.80;8.05;;;14.10;96.30;;;;;;5009703;28;20034;-69
2022/04/06 08:12:46;;;;;;;13.65;8.40;;;14.20;96.10;;;;;;5012268;28;20026;-69
2022/04/06 08:15:15;;;;;;;15.90;8.68;;;14.30;96.00;;;;;;5014718;28;20099;-69
2022/04/06 08:17:44;;;;;;;12.85;8.77;;;14.40;95.70;;;;;;5006685;28;20033;-69
2022/04/06 08:20:11;;;;;;;10.15;6.53;;;14.50;95.60;;;;;;5014241;28;20030;-69
2022/04/06 08:22:37;;;;;;;11.82;7.13;;;14.60;95.40;;;;;;5012971;28;20062;-69
2022/04/06 08:25:03;;;;;;;15.55;8.70;;;14.60;95.20;;;;;;5016846;28;20500;-68
2022/04/06 08:27:31;;;;;;;14.63;9.10;;;14.70;95.00;;;;;;5022623;28;20026;-68
2022/04/06 08:29:56;;;;;;;14.93;8.30;;;14.80;95.00;;;;;;5011840;28;20034;-69
2022/04/06 08:32:22;;;;;;;16.27;9.35;;;14.90;94.80;;;;;;5006571;28;20432;-68
2022/04/06 08:34:48;;;;;;;12.68;7.78;;;14.90;94.40;;;;;;5004138;28;20034;-68
2022/04/06 08:37:13;;;;;;;12.32;7.72;;;15.00;94.30;;;;;;5003774;28;20037;-69
2022/04/06 08:39:42;;;;;;;11.43;6.65;;;15.00;94.00;;;;;;5014421;28;20033;-69
2022/04/06 08:42:32;;;;;;;13.23;6.43;;;15.10;93.80;;;;;;5012757;28;20041;-69
2022/04/06 08:45:01;;;;;;;13.38;7.10;;;15.00;93.50;;;;;;5013023;28;20038;-69
2022/04/06 08:47:33;;;;;;;12.82;6.78;;;15.00;93.20;;;;;;5006486;28;20030;-69
2022/04/06 08:50:07;;;;;;;10.35;6.55;;;14.90;93.00;;;;;;4997876;28;20049;-69
2022/04/06 08:52:33;;;;;;;13.98;6.80;;;14.80;92.90;;;;;;5009545;28;20029;-68
2022/04/06 08:55:18;;;;;;;12.95;6.25;;;14.70;92.90;;;;;;5007263;28;20096;-68
2022/04/06 08:57:47;;;;;;;13.38;6.38;;;14.70;93.00;;;;;;5006300;28;20042;-69
2022/04/06 09:00:32;;;;;;;12.10;5.67;;;14.70;93.00;;;;;;5004281;28;20520;-69
2022/04/06 09:03:00;;;;;;;11.35;6.68;;;14.70;92.60;;;;;;4996629;28;20041;-69
2022/04/06 09:05:44;;;;;;;11.73;5.83;;;14.60;92.70;;;;;;5005551;28;20084;-69
2022/04/06 09:08:11;;;;;;;11.20;5.85;;;14.70;92.80;;;;;;4998902;28;20328;-69
2022/04/06 09:10:42;;;;;;;10.65;6.25;;;14.70;92.50;;;;;;5009852;28;20045;-69
2022/04/06 09:13:15;;;;;;;9.68;6.45;;;14.70;92.40;;;;;;5007156;28;20022;-69
2022/04/06 09:15:43;;;;;;;11.20;5.60;;;14.80;92.40;;;;;;5003994;28;20034;-69
2022/04/06 09:18:35;;;;;;;10.25;5.88;;;14.80;92.60;;;;;;5013610;28;20036;-69
2022/04/06 09:21:07;;;;;;;8.80;5.20;;;14.80;92.40;;;;;;5011867;28;20029;-68
2022/04/06 09:23:34;;;;;;;11.95;5.47;;;14.80;92.20;;;;;;5011406;28;20057;-69
2022/04/06 09:26:03;;;;;;;11.40;6.05;;;14.90;92.10;;;;;;5011376;28;20033;-69
2022/04/06 09:28:30;;;;;;;12.90;6.32;;;15.00;91.90;;;;;;5013167;28;20030;-69
2022/04/06 09:31:02;;;;;;;10.20;5.30;;;15.00;91.80;;;;;;5007365;28;20038;-68
2022/04/06 09:33:30;;;;;;;8.40;5.63;;;15.00;91.70;;;;;;4993392;28;20030;-69
2022/04/06 09:35:58;;;;;;;13.25;6.65;;;15.10;91.50;;;;;;4997882;28;20034;-69
2022/04/06 09:38:31;;;;;;;10.88;4.90;;;15.20;91.40;;;;;;5012930;28;20369;-69
2022/04/06 09:41:14;;;;;;;13.45;6.63;;;15.20;91.20;;;;;;5011841;28;20429;-70
2022/04/06 09:50:19;;;;;;;12.70;6.45;;;15.40;90.80;;;;;;5012606;28;20069;-69
2022/04/06 09:52:45;;;;;;;11.18;5.93;;;15.30;90.60;;;;;;5012037;28;20060;-69
2022/04/06 09:55:13;;;;;;;9.48;6.15;;;15.30;90.60;;;;;;5012469;28;20033;-69
2022/04/06 09:57:51;;;;;;;8.60;4.82;;;15.20;90.40;;;;;;5012455;28;20038;-69
2022/04/06 10:00:23;;;;;;;10.70;5.68;;;15.20;90.60;;;;;;5011357;28;20075;-69
2022/04/06 10:03:08;;;;;;;9.05;6.03;;;15.20;90.40;;;;;;5007119;28;20033;-69
2022/04/06 10:05:34;;;;;;;;;;;15.10;90.20;;;;;;4994020;28;20033;-69
2022/04/06 10:08:08;;;;;;;8.43;5.95;;;15.10;90.40;;;;;;5012343;28;19921;-69
2022/04/06 10:10:40;;;;;;;9.77;5.78;;;15.00;90.20;;;;;;5007821;28;20045;-69
2022/04/06 10:13:10;;;;;;;10.65;6.63;;;15.00;90.30;;;;;;5010941;28;20022;-69
2022/04/06 10:15:40;;;;;;;8.98;6.25;;;14.90;90.30;;;;;;5010197;28;20033;-69
2022/04/06 10:18:06;;;;;;;12.02;6.40;;;14.90;90.20;;;;;;5012333;28;20034;-69
2022/04/06 10:20:57;;;;;;;13.55;6.80;;;15.00;90.20;;;;;;5009787;28;20487;-70
2022/04/06 10:23:49;;;;;;;12.63;6.50;;;15.00;90.30;;;;;;4992565;28;20035;-68
2022/04/06 10:26:42;;;;;;;11.32;6.40;;;15.00;90.30;;;;;;4999088;28;20084;-70
2022/04/06 10:29:08;;;;;;;10.88;6.03;;;15.00;90.10;;;;;;5011434;28;20038;-69
2022/04/06 10:31:34;;;;;;;11.70;6.82;;;14.90;90.10;;;;;;5004270;28;20387;-70
2022/04/06 10:34:30;;;;;;;8.88;6.03;;;14.90;90.00;;;;;;4991893;28;20486;-69
2022/04/06 10:37:12;;;;;;;13.40;6.10;;;14.80;89.90;;;;;;5003483;28;20501;-69
2022/04/06 10:39:50;;;;;;;9.45;5.32;;;14.80;89.90;;;;;;5011844;28;20485;-70
2022/04/06 10:42:28;;;;;;;10.45;5.40;;;14.80;90.10;;;;;;5010031;28;20436;-69
2022/04/06 10:44:53;;;;;;;9.32;5.90;;;14.80;89.90;;;;;;5007575;28;20034;-69
2022/04/06 10:47:21;;;;;;;9.38;5.32;;;14.80;89.60;;;;;;5010071;28;20390;-69
2022/04/06 10:50:13;;;;;;;9.35;5.45;;;14.90;89.80;;;;;;5011596;28;20095;-69
2022/04/06 10:52:39;;;;;;;10.65;5.75;;;15.00;89.80;;;;;;5004649;28;20030;-69
2022/04/06 10:55:09;;;;;;;11.82;6.25;;;15.10;89.60;;;;;;4992142;28;20037;-69
2022/04/06 10:57:59;;;;;;;8.15;5.20;;;15.20;89.20;;;;;;5004191;28;20027;-69
2022/04/06 11:00:25;;;;;;;7.57;4.85;;;15.40;89.10;;;;;;4992026;28;20034;-70
2022/04/06 11:02:52;;;;;;;10.07;5.75;;;15.50;88.40;;;;;;5026541;28;20014;-69
2022/04/06 11:05:49;;;;;;;10.63;4.72;;;15.60;87.40;;;;;;5010127;28;20038;-70
2022/04/06 11:11:44;;;;;;;9.90;5.40;;;15.60;86.80;;;;;;5001917;28;20049;-69
2022/04/06 11:14:11;;;;;;;10.32;4.43;;;15.50;86.10;;;;;;5011417;28;20515;-69
2022/04/06 11:16:46;;;;;;;7.60;4.65;;;15.50;85.90;;;;;;5003860;28;20159;-70
2022/04/06 11:19:15;;;;;;;9.20;5.03;;;15.40;85.90;;;;;;5010150;28;20029;-68
2022/04/06 11:21:55;;;;;;;9.90;5.70;;;15.30;85.90;;;;;;5007480;28;20092;-69
2022/04/06 11:24:27;;;;;;;9.32;5.10;;;15.30;85.20;;;;;;5011777;28;20029;-68
2022/04/06 11:26:53;;;;;;;8.38;5.35;;;15.30;85.40;;;;;;5009764;28;20085;-70
2022/04/06 11:29:24;;;;;;;13.55;6.57;;;15.20;85.50;;;;;;5010173;28;20179;-69
2022/04/06 11:31:55;;;;;;;11.52;5.25;;;15.20;85.50;;;;;;5002098;28;20026;-69
2022/04/06 11:34:38;;;;;;;8.75;5.60;;;15.20;85.80;;;;;;5010405;28;20034;-69
2022/04/06 11:37:05;;;;;;;12.48;6.65;;;15.10;85.90;;;;;;5008965;28;20405;-70
2022/04/06 11:39:31;;;;;;;10.82;5.90;;;15.10;86.10;;;;;;5026619;28;20381;-71
2022/04/06 11:42:02;;;;;;;13.63;6.15;;;15.10;86.30;;;;;;5009959;28;20025;-70
2022/04/06 11:44:28;;;;;;;10.00;5.95;;;15.10;86.40;;;;;;5011243;28;20030;-69
2022/04/06 11:46:54;;;;;;;12.73;6.05;;;15.00;86.60;;;;;;5011538;28;20055;-69
2022/04/06 11:49:24;;;;;;;8.98;5.10;;;15.00;86.70;;;;;;5011230;28;20030;-69
2022/04/06 11:51:52;;;;;;;9.45;5.72;;;15.00;86.90;;;;;;4999788;28;20101;-68
2022/04/06 11:54:18;;;;;;;14.15;6.32;;;14.90;86.80;;;;;;4996155;28;20072;-69
2022/04/06 11:56:43;;;;;;;9.30;5.53;;;14.90;86.80;;;;;;5003631;28;20375;-70
2022/04/06 11:59:16;;;;;;;8.38;5.60;;;14.80;86.50;;;;;;5004712;28;20038;-69
2022/04/06 12:01:42;;;;;;;10.88;5.90;;;14.80;86.10;;;;;;5011412;28;20033;-69
2022/04/06 12:04:19;;;;;;;11.40;6.05;;;14.70;86.10;;;;;;5009991;28;20103;-70
2022/04/06 12:06:46;;;;;;;8.73;5.22;;;14.60;86.10;;;;;;5011481;28;20421;-71
2022/04/06 12:09:11;;;;;;;11.80;5.45;;;14.60;86.00;;;;;;5008159;28;20061;-70
2022/04/06 12:11:39;;;;;;;8.80;5.63;;;14.50;85.70;;;;;;5007865;28;20537;-70
2022/04/06 12:14:10;;;;;;;9.38;5.75;;;14.50;85.40;;;;;;5001710;28;20057;-67
2022/04/06 12:16:36;;;;;;;10.35;5.15;;;14.40;85.60;;;;;;5004228;28;20080;-68
2022/04/06 12:19:03;;;;;;;9.82;5.32;;;14.30;85.60;;;;;;5001831;28;20041;-69
2022/04/06 12:21:29;;;;;;;10.48;5.78;;;14.30;85.90;;;;;;5000050;28;20042;-70
2022/04/06 12:23:55;;;;;;;9.57;6.13;;;14.30;86.20;;;;;;5011156;28;20036;-69
2022/04/06 12:26:25;;;;;;;7.70;5.45;;;14.30;86.30;;;;;;5011452;28;20104;-70
2022/04/06 12:28:58;;;;;;;13.55;5.47;;;14.30;86.30;;;;;;5017181;28;20026;-70
2022/04/06 12:31:38;;;;;;;6.97;4.63;;;14.30;86.30;;;;;;5010880;28;20567;-70
2022/04/06 12:34:04;;;;;;;8.20;4.68;;;14.30;86.40;;;;;;5005408;28;20045;-68
2022/04/06 12:36:30;;;;;;;8.48;4.88;;;14.30;86.50;;;;;;5005413;28;20507;-69
2022/04/06 12:39:01;;;;;;;7.82;4.43;;;14.30;86.50;;;;;;4994822;28;20117;-69
2022/04/06 12:41:29;;;;;;;8.02;4.63;;;14.40;86.70;;;;;;5002776;28;20033;-69
2022/04/06 12:43:55;;;;;;;9.18;4.60;;;14.40;86.60;;;;;;5011426;28;20034;-69
2022/04/06 12:46:41;;;;;;;11.32;4.95;;;14.30;86.60;;;;;;5006086;28;20034;-70
2022/04/06 12:49:42;;;;;;;7.72;4.30;;;14.30;86.50;;;;;;4995493;28;20034;-70
2022/04/06 12:52:26;;;;;;;9.98;5.65;;;14.30;86.60;;;;;;5004814;28;20078;-69
2022/04/06 12:55:05;;;;;;;10.05;5.40;;;14.20;86.50;;;;;;5005885;28;20460;-68